createdAt,value
2022-09-17T00:03:10.613Z,99039.27
2022-09-17T00:06:35.499Z,99039.45
2022-09-17T00:09:23.013Z,99038.13
2022-09-17T00:12:02.461Z,99043.73
2022-09-17T00:14:53.052Z,99046.19
2022-09-17T00:17:35.478Z,99046.81
2022-09-17T00:20:13.246Z,99044.27
2022-09-17T00:22:43.498Z,99049.73
2022-09-17T00:25:25.301Z,99049.75
2022-09-17T00:28:05.440Z,99053.81
2022-09-17T00:30:49.104Z,99048.92
2022-09-17T00:33:31.371Z,99047.67
2022-09-17T00:36:39.544Z,99046.61
2022-09-17T00:39:18.415Z,99051.04
2022-09-17T00:42:16.168Z,99051.71
2022-09-17T00:45:07.889Z,99055.07
2022-09-17T00:47:51.769Z,99053.11
2022-09-17T00:50:44.331Z,99059.61
2022-09-17T00:53:47.774Z,99060.48
2022-09-17T00:56:27.841Z,99058.21
2022-09-17T00:59:03.402Z,99058.55
2022-09-17T01:01:56.215Z,99057.27
2022-09-17T01:04:51.109Z,99055.96
2022-09-17T01:08:07.555Z,99060.14
2022-09-17T01:11:26.890Z,99059.05
2022-09-17T01:14:22.897Z,99059.02
2022-09-17T01:21:23.031Z,99059.33
2022-09-17T01:24:23.538Z,99056.27
2022-09-17T01:27:58.082Z,99054.13
2022-09-17T01:31:02.317Z,99052.78
2022-09-17T01:33:46.207Z,99055.75
2022-09-17T01:36:52.462Z,99051.40
2022-09-17T01:39:57.860Z,99053.39
2022-09-17T01:43:26.521Z,99054.79
2022-09-17T01:46:04.521Z,99054.84
2022-09-17T01:48:44.151Z,99059.89
2022-09-17T01:51:43.576Z,99058.48
2022-09-17T01:54:40.389Z,99057.80
2022-09-17T01:57:30.643Z,99057.28
2022-09-17T02:00:25.214Z,99060.45
2022-09-17T02:03:48.108Z,99059.20
2022-09-17T02:06:35.904Z,99057.57
2022-09-17T02:09:36.326Z,99057.14
2022-09-17T02:12:38.380Z,99057.77
2022-09-17T02:15:15.193Z,99057.07
2022-09-17T02:17:49.459Z,99054.22
2022-09-17T02:20:29.970Z,99053.31
2022-09-17T02:23:14.213Z,99051.28
2022-09-17T02:26:01.727Z,99051.08
2022-09-17T02:29:02.456Z,99051.60
2022-09-17T02:31:55.799Z,99052.81
2022-09-17T02:34:36.409Z,99051.05
2022-09-17T02:37:12.652Z,99049.04
2022-09-17T02:40:00.681Z,99050.05
2022-09-17T02:43:07.595Z,99051.43
2022-09-17T02:45:56.626Z,99049.11
2022-09-17T02:48:59.937Z,99044.87
2022-09-17T02:51:53.693Z,99046.79
2022-09-17T02:55:01.014Z,99047.31
2022-09-17T02:58:13.732Z,99044.30
2022-09-17T03:00:43.267Z,99047.81
2022-09-17T03:03:19.774Z,99047.70
2022-09-17T03:09:20.139Z,99049.23
2022-09-17T03:12:21.394Z,99047.42
2022-09-17T03:14:59.253Z,99052.15
2022-09-17T03:17:30.005Z,99046.96
2022-09-17T03:19:58.315Z,99050.42
2022-09-17T03:22:53.751Z,99042.89
2022-09-17T03:25:39.283Z,99041.26
2022-09-17T03:28:27.510Z,99040.45
2022-09-17T03:31:02.902Z,99040.69
2022-09-17T03:33:32.861Z,99040.83
2022-09-17T03:36:02.119Z,99038.52
2022-09-17T03:38:48.328Z,99039.93
2022-09-17T03:41:34.832Z,99044.25
2022-09-17T03:44:11.366Z,99045.22
2022-09-17T03:46:40.624Z,99045.02
2022-09-17T03:49:52.343Z,99046.44
2022-09-17T03:52:30.742Z,99048.94
2022-09-17T03:55:18.710Z,99042.82
2022-09-17T03:57:48.538Z,99044.09
2022-09-17T04:00:25.167Z,99041.94
2022-09-17T04:03:12.562Z,99039.63
2022-09-17T04:06:43.493Z,99040.36
2022-09-17T04:09:13.694Z,99033.98
2022-09-17T04:11:51.360Z,99034.48
2022-09-17T04:14:31.101Z,99033.52
2022-09-17T04:17:00.942Z,99028.57
2022-09-17T04:19:48.758Z,99033.73
2022-09-17T04:22:25.198Z,99033.08
2022-09-17T04:25:35.261Z,99036.42
2022-09-17T04:28:23.323Z,99040.84
2022-09-17T04:30:54.056Z,99047.52
2022-09-17T04:33:27.863Z,99048.74
2022-09-17T04:36:06.197Z,99044.18
2022-09-17T04:38:53.804Z,99046.30
2022-09-17T04:41:33.655Z,99044.25
2022-09-17T04:44:22.003Z,99046.73
2022-09-17T04:47:02.291Z,99042.14
2022-09-17T04:49:48.855Z,99043.17
2022-09-17T04:52:30.847Z,99042.90
2022-09-17T04:55:08.756Z,99041.41
2022-09-17T04:57:47.181Z,99039.39
2022-09-17T05:00:38.721Z,99041.05
2022-09-17T05:03:35.346Z,99044.61
2022-09-17T05:06:10.586Z,99041.90
2022-09-17T05:08:54.049Z,99045.54
2022-09-17T05:11:29.583Z,99046.50
2022-09-17T05:14:08.754Z,99048.14
2022-09-17T05:16:44.702Z,99051.55
2022-09-17T05:19:20.120Z,99048.09
2022-09-17T05:22:06.763Z,99048.27
2022-09-17T05:25:00.492Z,99049.52
2022-09-17T05:27:33.529Z,99048.81
2022-09-17T05:30:19.141Z,99051.59
2022-09-17T05:33:06.875Z,99047.02
2022-09-17T05:35:38.220Z,99048.52
2022-09-17T05:38:09.735Z,99051.20
2022-09-17T05:40:43.863Z,99047.38
2022-09-17T05:43:41.816Z,99047.46
2022-09-17T05:46:21.144Z,99039.86
2022-09-17T05:49:10.449Z,99039.58
2022-09-17T05:51:59.173Z,99038.20
2022-09-17T05:54:36.583Z,99034.45
2022-09-17T05:57:23.264Z,99037.52
2022-09-17T06:00:12.887Z,99034.66
2022-09-17T06:02:40.875Z,99032.53
2022-09-17T06:05:12.262Z,99031.06
2022-09-17T06:07:45.756Z,99029.76
2022-09-17T06:11:00.213Z,99025.61
2022-09-17T06:13:31.064Z,99022.21
2022-09-17T06:16:21.407Z,99021.63
2022-09-17T06:18:53.038Z,99019.14
2022-09-17T06:21:24.060Z,99016.64
2022-09-17T06:24:17.888Z,99021.70
2022-09-17T06:26:58.817Z,99018.32
2022-09-17T06:29:49.635Z,99015.06
2022-09-17T06:32:43.572Z,99017.48
2022-09-17T06:35:27.330Z,99009.30
2022-09-17T06:38:18.948Z,99007.50
2022-09-17T06:41:05.989Z,99008.73
2022-09-17T06:43:43.726Z,99007.80
2022-09-17T06:46:40.010Z,99007.04
2022-09-17T06:49:10.729Z,99002.95
2022-09-17T06:52:01.847Z,99008.19
2022-09-17T06:54:41.350Z,99011.73
2022-09-17T06:57:31.044Z,99014.05
2022-09-17T07:00:02.418Z,99024.20
2022-09-17T07:03:00.489Z,99022.37
2022-09-17T07:05:41.129Z,99023.02
2022-09-17T07:08:17.693Z,99021.09
2022-09-17T07:11:08.349Z,99025.70
2022-09-17T07:14:00.534Z,99030.33
2022-09-17T07:16:35.879Z,99030.29
2022-09-17T07:19:05.521Z,99034.66
2022-09-17T07:21:40.172Z,99040.95
2022-09-17T07:24:11.069Z,99047.23
2022-09-17T07:27:00.547Z,99048.02
2022-09-17T07:30:21.108Z,99052.02
2022-09-17T07:33:12.171Z,99052.26
2022-09-17T07:39:46.352Z,99058.91
2022-09-17T07:42:20.382Z,99059.83
2022-09-17T07:44:52.860Z,99065.65
2022-09-17T07:47:48.411Z,99064.92
2022-09-17T07:50:43.292Z,99063.16
2022-09-17T07:53:48.457Z,99059.90
2022-09-17T07:56:51.324Z,99063.58
2022-09-17T08:03:20.428Z,99059.59
2022-09-17T08:06:19.814Z,99058.98
2022-09-17T08:09:06.960Z,99061.70
2022-09-17T08:11:56.457Z,99057.52
2022-09-17T08:14:29.926Z,99051.58
2022-09-17T08:17:10.793Z,99048.60
2022-09-17T08:19:54.399Z,99047.62
2022-09-17T08:22:50.175Z,99050.30
2022-09-17T08:26:19.575Z,99057.76
2022-09-17T08:29:08.339Z,99075.08
2022-09-17T08:31:48.246Z,99079.78
2022-09-17T08:35:03.341Z,99085.77
2022-09-17T08:37:50.677Z,99084.29
2022-09-17T08:40:51.580Z,99082.30
2022-09-17T08:43:28.908Z,99083.71
2022-09-17T08:46:21.303Z,99084.42
2022-09-17T08:49:34.729Z,99086.39
2022-09-17T08:52:36.345Z,99083.75
2022-09-17T08:55:36.281Z,99085.55
2022-09-17T08:58:35.531Z,99087.56
2022-09-17T09:01:56.802Z,99077.38
2022-09-17T09:04:49.650Z,99076.17
2022-09-17T09:07:49.941Z,99070.15
2022-09-17T09:10:54.512Z,99070.03
2022-09-17T09:14:03.078Z,99075.28
2022-09-17T09:19:34.589Z,99082.61
2022-09-17T09:22:29.442Z,99079.36
2022-09-17T09:25:23.893Z,99083.56
2022-09-17T09:28:36.645Z,99086.54
2022-09-17T09:31:28.357Z,99090.94
2022-09-17T09:34:39.937Z,99086.23
2022-09-17T09:37:35.568Z,99083.08
2022-09-17T09:40:57.013Z,99076.98
2022-09-17T09:44:09.050Z,99071.84
2022-09-17T09:47:29.198Z,99070.65
2022-09-17T09:51:05.580Z,99068.88
2022-09-17T09:58:47.833Z,99085.05
2022-09-17T10:02:04.134Z,99082.22
2022-09-17T10:04:53.267Z,99079.55
2022-09-17T10:07:51.311Z,99070.46
2022-09-17T10:11:28.167Z,99068.67
2022-09-17T10:14:25.405Z,99069.74
2022-09-17T10:17:28.478Z,99072.93
2022-09-17T10:20:22.938Z,99077.08
2022-09-17T10:23:00.156Z,99081.23
2022-09-17T10:25:42.481Z,99080.02
2022-09-17T10:28:47.599Z,99085.36
2022-09-17T10:31:43.427Z,99087.10
2022-09-17T10:34:22.604Z,99087.91
2022-09-17T10:37:43.965Z,99092.11
2022-09-17T10:40:32.646Z,99100.41
2022-09-17T10:43:18.181Z,99106.23
2022-09-17T10:46:04.483Z,99112.59
2022-09-17T10:48:50.259Z,99112.80
2022-09-17T10:51:45.211Z,99116.52
2022-09-17T10:54:59.711Z,99114.74
2022-09-17T10:57:55.906Z,99120.96
2022-09-17T11:01:08.601Z,99128.04
2022-09-17T11:03:36.965Z,99135.09
2022-09-17T11:06:32.097Z,99136.29
2022-09-17T11:09:35.620Z,99131.05
2022-09-17T11:12:45.259Z,99125.52
2022-09-17T11:16:09.668Z,99118.32
2022-09-17T11:19:11.105Z,99109.58
2022-09-17T11:21:57.475Z,99106.83
2022-09-17T11:25:00.334Z,99108.80
2022-09-17T11:28:37.665Z,99099.91
2022-09-17T11:31:13.948Z,99102.35
2022-09-17T11:38:05.182Z,99090.44
2022-09-17T11:41:07.626Z,99095.04
2022-09-17T11:44:12.241Z,99094.67
2022-09-17T11:47:35.721Z,99089.73
2022-09-17T11:50:35.388Z,99094.00
2022-09-17T11:53:53.401Z,99100.04
2022-09-17T11:56:39.097Z,99111.79
2022-09-17T11:59:29.698Z,99114.33
2022-09-17T12:02:34.975Z,99122.54
2022-09-17T12:05:40.428Z,99115.00
2022-09-17T12:13:07.680Z,99101.63
2022-09-17T12:16:08.034Z,99104.83
2022-09-17T12:19:05.474Z,99107.85
2022-09-17T12:21:54.865Z,99103.58
2022-09-17T12:24:50.155Z,99096.46
2022-09-17T12:28:14.626Z,99088.85
2022-09-17T12:31:31.873Z,99090.27
2022-09-17T12:35:22.928Z,99094.34
2022-09-17T12:38:14.968Z,99104.63
2022-09-17T12:41:17.757Z,99107.27
2022-09-17T12:44:05.486Z,99108.86
2022-09-17T12:46:57.241Z,99101.92
2022-09-17T12:50:28.283Z,99094.13
2022-09-17T12:53:23.918Z,99086.86
2022-09-17T12:55:58.843Z,99087.95
2022-09-17T12:59:10.318Z,99087.05
2022-09-17T13:02:00.278Z,99090.61
2022-09-17T13:05:12.993Z,99087.41
2022-09-17T13:08:21.715Z,99083.15
2022-09-17T13:11:28.724Z,99088.27
2022-09-17T13:14:38.301Z,99089.68
2022-09-17T13:17:39.832Z,99091.27
2022-09-17T13:20:21.937Z,99094.29
2022-09-17T13:23:07.330Z,99092.47
2022-09-17T13:26:34.438Z,99090.34
2022-09-17T13:29:16.015Z,99086.79
2022-09-17T13:35:33.719Z,99085.54
2022-09-17T13:38:15.881Z,99086.96
2022-09-17T13:41:21.408Z,99086.94
2022-09-17T13:43:57.607Z,99087.84
2022-09-17T13:46:48.606Z,99085.38
2022-09-17T13:49:50.282Z,99089.83
2022-09-17T13:52:53.413Z,99088.59
2022-09-17T13:56:09.158Z,99087.20
2022-09-17T14:02:20.684Z,99083.08
2022-09-17T14:05:39.675Z,99080.06
2022-09-17T14:08:51.017Z,99077.38
2022-09-17T14:11:52.129Z,99069.23
2022-09-17T14:14:54.964Z,99064.45
2022-09-17T14:17:56.601Z,99061.24
2022-09-17T14:21:01.013Z,99067.08
2022-09-17T14:23:58.484Z,99069.73
2022-09-17T14:27:05.676Z,99064.96
2022-09-17T14:30:19.798Z,99066.92
2022-09-17T14:33:30.882Z,99064.80
2022-09-17T14:36:28.845Z,99062.85
2022-09-17T14:39:58.742Z,99066.93
2022-09-17T14:42:47.934Z,99064.80
2022-09-17T14:45:39.804Z,99067.11
2022-09-17T14:48:36.791Z,99067.10
2022-09-17T14:51:39.425Z,99064.98
2022-09-17T14:54:36.934Z,99070.14
2022-09-17T14:57:37.544Z,99068.58
2022-09-17T15:00:18.811Z,99071.98
2022-09-17T15:03:06.626Z,99069.50
2022-09-17T15:06:15.898Z,99075.71
2022-09-17T15:09:19.573Z,99072.50
2022-09-17T15:12:00.731Z,99062.92
2022-09-17T15:14:40.668Z,99064.52
2022-09-17T15:17:29.100Z,99060.61
2022-09-17T15:20:35.161Z,99058.84
2022-09-17T15:24:11.780Z,99062.55
2022-09-17T15:30:55.907Z,99062.02
2022-09-17T15:33:59.756Z,99054.39
2022-09-17T15:37:12.097Z,99051.55
2022-09-17T15:39:56.959Z,99053.86
2022-09-17T15:43:28.424Z,99061.13
2022-09-17T15:46:57.347Z,99076.73
2022-09-17T15:50:26.129Z,99079.39
2022-09-17T15:53:30.421Z,99067.14
2022-09-17T15:56:19.967Z,99060.23
2022-09-17T15:59:50.716Z,99060.40
2022-09-17T16:02:57.497Z,99080.61
2022-09-17T16:06:04.638Z,99090.17
2022-09-17T16:09:39.654Z,99088.39
2022-09-17T16:13:12.807Z,99080.40
2022-09-17T16:15:52.040Z,99078.77
2022-09-17T16:18:45.364Z,99083.19
2022-09-17T16:21:38.492Z,99085.82
2022-09-17T16:24:23.857Z,99089.17
2022-09-17T16:27:30.122Z,99084.90
2022-09-17T16:30:59.545Z,99077.43
2022-09-17T16:34:30.053Z,99080.92
2022-09-17T16:38:14.621Z,99075.72
2022-09-17T16:41:17.976Z,99069.98
2022-09-17T16:44:34.036Z,99063.95
2022-09-17T16:50:31.876Z,99077.67
2022-09-17T16:53:28.791Z,99076.23
2022-09-17T16:56:31.895Z,99080.28
2022-09-17T16:59:24.402Z,99089.08
2022-09-17T17:02:32.440Z,99086.77
2022-09-17T17:05:45.783Z,99080.56
2022-09-17T17:08:40.750Z,99074.69
2022-09-17T17:11:29.171Z,99080.45
2022-09-17T17:14:14.532Z,99082.87
2022-09-17T17:16:44.843Z,99084.92
2022-09-17T17:19:32.720Z,99088.92
2022-09-17T17:22:37.782Z,99087.40
2022-09-17T17:25:56.309Z,99085.91
2022-09-17T17:28:54.826Z,99082.65
2022-09-17T17:31:55.889Z,99080.98
2022-09-17T17:34:31.403Z,99079.16
2022-09-17T17:37:16.902Z,99080.00
2022-09-17T17:40:00.038Z,99082.27
2022-09-17T17:42:51.351Z,99078.18
2022-09-17T17:45:45.202Z,99078.84
2022-09-17T17:48:28.629Z,99076.45
2022-09-17T17:51:09.727Z,99074.31
2022-09-17T17:53:53.381Z,99075.13
2022-09-17T17:56:37.000Z,99083.70
2022-09-17T17:59:11.371Z,99087.29
2022-09-17T18:02:06.456Z,99086.51
2022-09-17T18:04:53.640Z,99086.48
2022-09-17T18:07:57.347Z,99087.86
2022-09-17T18:11:04.582Z,99087.98
2022-09-17T18:13:42.126Z,99088.11
2022-09-17T18:16:28.910Z,99091.08
2022-09-17T18:19:10.314Z,99099.14
2022-09-17T18:21:57.187Z,99101.91
2022-09-17T18:24:52.688Z,99103.83
2022-09-17T18:27:49.017Z,99104.32
2022-09-17T18:31:00.177Z,99103.10
2022-09-17T18:33:57.801Z,99091.81
2022-09-17T18:36:51.227Z,99088.48
2022-09-17T18:39:59.556Z,99089.20
2022-09-17T18:43:00.146Z,99090.95
2022-09-17T18:46:07.987Z,99090.61
2022-09-17T18:49:05.268Z,99090.92
2022-09-17T18:52:02.358Z,99085.10
2022-09-17T18:54:57.555Z,99080.12
2022-09-17T18:57:57.967Z,99081.68
2022-09-17T19:00:57.423Z,99080.23
2022-09-17T19:03:50.715Z,99076.64
2022-09-17T19:06:37.153Z,99079.08
2022-09-17T19:09:30.356Z,99078.13
2022-09-17T19:12:09.107Z,99072.27
2022-09-17T19:15:21.429Z,99063.60
2022-09-17T19:18:30.685Z,99057.01
2022-09-17T19:21:18.462Z,99058.02
2022-09-17T19:24:04.344Z,99059.23
2022-09-17T19:27:04.705Z,99061.36
2022-09-17T19:29:58.636Z,99063.83
2022-09-17T19:32:51.381Z,99065.66
2022-09-17T19:35:41.566Z,99062.98
2022-09-17T19:38:36.873Z,99058.73
2022-09-17T19:41:37.443Z,99057.16
2022-09-17T19:44:39.931Z,99054.14
2022-09-17T19:47:50.176Z,99054.15
2022-09-17T19:50:29.875Z,99049.75
2022-09-17T19:53:12.771Z,99045.69
2022-09-17T19:56:43.906Z,99049.02
2022-09-17T19:59:49.827Z,99051.70
2022-09-17T20:02:40.265Z,99052.42
2022-09-17T20:05:09.056Z,99050.27
2022-09-17T20:07:47.881Z,99050.63
2022-09-17T20:10:43.587Z,99052.20
2022-09-17T20:13:38.277Z,99054.55
2022-09-17T20:16:52.612Z,99050.79
2022-09-17T20:19:45.590Z,99045.46
2022-09-17T20:22:25.526Z,99045.09
2022-09-17T20:25:03.006Z,99043.33
2022-09-17T20:27:55.534Z,99044.90
2022-09-17T20:30:37.025Z,99043.10
2022-09-17T20:33:20.029Z,99041.94
2022-09-17T20:36:30.766Z,99041.58
2022-09-17T20:39:21.087Z,99040.39
2022-09-17T20:42:49.790Z,99036.86
2022-09-17T20:45:29.434Z,99042.34
2022-09-17T20:48:12.543Z,99042.41
2022-09-17T20:51:03.897Z,99041.48
2022-09-17T20:53:41.472Z,99040.58
2022-09-17T20:56:18.264Z,99048.27
2022-09-17T20:59:14.018Z,99039.08
2022-09-17T21:01:50.965Z,99034.66
2022-09-17T21:04:27.233Z,99035.20
2022-09-17T21:07:02.193Z,99038.56
2022-09-17T21:09:49.977Z,99037.16
2022-09-17T21:12:27.766Z,99038.74
2022-09-17T21:15:28.375Z,99036.95
2022-09-17T21:18:07.369Z,99036.98
2022-09-17T21:20:51.419Z,99035.06
2022-09-17T21:23:29.774Z,99031.54
2022-09-17T21:26:12.167Z,99031.52
2022-09-17T21:29:20.087Z,99028.69
2022-09-17T21:32:09.846Z,99034.56
2022-09-17T21:35:02.914Z,99033.91
2022-09-17T21:37:46.012Z,99039.36
2022-09-17T21:40:44.899Z,99041.66
2022-09-17T21:44:04.708Z,99045.02
2022-09-17T21:46:59.816Z,99040.45
2022-09-17T21:49:33.330Z,99040.05
2022-09-17T21:52:56.192Z,99036.27
2022-09-17T21:55:25.141Z,99038.02
2022-09-17T21:58:14.026Z,99043.66
2022-09-17T22:01:05.041Z,99043.98
2022-09-17T22:03:32.214Z,99043.62
2022-09-17T22:06:41.342Z,99042.36
2022-09-17T22:09:32.631Z,99043.05
2022-09-17T22:12:16.999Z,99039.69
2022-09-17T22:15:09.207Z,99037.05
2022-09-17T22:18:12.806Z,99036.18
2022-09-17T22:20:55.691Z,99034.90
2022-09-17T22:23:48.896Z,99037.18
2022-09-17T22:29:40.228Z,99032.41
2022-09-17T22:33:02.079Z,99026.02
2022-09-17T22:35:50.248Z,99022.63
2022-09-17T22:38:28.285Z,99019.79
2022-09-17T22:41:45.000Z,99014.83
2022-09-17T22:44:17.467Z,99013.23
2022-09-17T22:46:58.073Z,99011.98
2022-09-17T22:49:27.049Z,99014.27
2022-09-17T22:52:03.964Z,99012.17
2022-09-17T22:54:34.863Z,99012.39
2022-09-17T22:57:14.897Z,99006.95
2022-09-17T22:59:58.060Z,99008.55
2022-09-17T23:03:50.236Z,99008.02
2022-09-17T23:06:33.772Z,99005.02
2022-09-17T23:09:36.271Z,99008.55
2022-09-17T23:16:16.827Z,99000.23
2022-09-17T23:19:09.574Z,99004.12
2022-09-17T23:21:54.413Z,99004.91
2022-09-17T23:27:25.170Z,99003.48
2022-09-17T23:30:10.064Z,98997.52
2022-09-17T23:33:02.636Z,99000.17
2022-09-17T23:35:56.140Z,98993.08
2022-09-17T23:38:53.714Z,98990.96
2022-09-17T23:41:58.150Z,98986.95
2022-09-17T23:44:59.131Z,98983.95
2022-09-17T23:47:53.119Z,98985.02
2022-09-17T23:50:33.462Z,98982.02
2022-09-17T23:53:16.955Z,98979.02
2022-09-17T23:56:08.336Z,98981.52
2022-09-17T23:59:15.064Z,98980.14
